Terminal Aerodrome Forecast
Issued by NWS Upton, NY

Current Version | Previous Version | Text Only | Print | Product List | Glossary On
Versions: 1 2 3 4 5 6 7 8 9 10 11 12 13 14 15 16 17 18 19 20 21 22 23 24 25 26 27 28 29 30 31 32 33 34 35
000
FTUS41 KOKX 302033 AAB
TAFJFK
TAF AMD
KJFK 302033Z 3021/3124 18024G33KT P6SM SCT060 SCT250
     FM310100 18018G24KT P6SM SCT250
     FM310300 19012KT P6SM SCT150 SCT250
     FM310800 20010KT 2SM BR BKN005
     FM311500 20010KT P6SM VCSH SCT035 BKN060
     FM311800 18010KT 4SM SHRA BKN045 PROB30 3118/3124 2SM TSRA
      BKN030CB=

USA.gov is the U.S. government's official web portal to all federal, state and local government web resources and services.